Thompson Airport
CYTH : now visible

Airfield :











YOU CAN JOIN US ON...

 
LOGIN :

Register | Disclaimer

   EN    FR    IT 

 









Legend :    VFR   Marginal VFR   IFR   Intensive IFR   Very Intensive IFR
Visi :
Ceiling :
>= 8 km
>= 3000ft
5 to 8 km
1000 to 3000 ft
1500m to 5 km
500 to 1000 ft
800 to 1500m
200 to 500 ft
< 800m
< 200 ft
Symbols :   Thunderstorms  Fog  Heavy snow  Heavy precipitations  Wind > 20 kt






- Airport Elevation : 729 ft
- IATA code : YTH


CYTH - Thompson

CURRENT METAR :
  • 200000Z 34012G18KT 15SM DRSN FEW250 02/M14 A3015 RMK CI1 SLP228

EXPIRED METARs :
  • 192300Z 35012G18KT 300V010 15SM DRSN FEW250 02/M14 A3016 RMK CI1 SLP233
  • 192200Z 35016G22KT 15SM DRSN FEW250 01/M15 A3016 RMK CI2 SLP232
  • 192100Z 35011G18KT 15SM DRSN SCT240 01/M13 A3017 RMK CI3 SLP237

TAF TAF CYTH
Valid from the 20 at 01:00 until the 20 at 13:00 UTC


200040Z 2001/2013 34012KT P6SM FEW250
FM201000 30008KT P6SM FEW020 BKN120
FM201200 31010KT P6SM -SN BKN020 RMK NXT FCST BY 200700Z
CZWG FIR / North America



MET'MAP, your aeronautical weather chart ! - Copyright ORBIFLY December 2007 - Disclaimer

ORBIFLY MET'MAP TEAM :

Programming & Development : Alexandra Zaïnal
Original concept : Baudouin d'Aumeries
Technical & hardware support : Manuel Goepfert
Assistance : Marc-Olivier Méhu




SOURCES & CREDITS :

   NOAA       Earth
Advisory